createdAt,value
2017-07-08T00:00:12.099Z,46.44
2017-07-08T00:01:12.126Z,46.44
2017-07-08T00:02:11.833Z,46.44
2017-07-08T00:03:12.180Z,46.44
2017-07-08T00:04:12.210Z,46.53
2017-07-08T00:05:12.234Z,46.83
2017-07-08T00:06:11.948Z,46.53
2017-07-08T00:07:12.309Z,46.83
2017-07-08T00:08:11.991Z,46.63
2017-07-08T00:09:12.018Z,46.73
2017-07-08T00:10:12.366Z,46.53
2017-07-08T00:11:12.396Z,46.8
2017-07-08T00:12:12.099Z,46.9
2017-07-08T00:13:12.453Z,46.53
2017-07-08T00:14:12.477Z,46.73
2017-07-08T00:15:12.505Z,46.63
2017-07-08T00:16:12.207Z,46.9
2017-07-08T00:17:12.560Z,46.51
2017-07-08T00:18:12.587Z,46.8
2017-07-08T00:19:12.614Z,46.7
2017-07-08T00:20:12.317Z,46.8
2017-07-08T00:21:12.664Z,47
2017-07-08T00:22:12.696Z,46.9
2017-07-08T00:23:12.396Z,46.8
2017-07-08T00:24:12.750Z,46.8
2017-07-08T00:25:12.774Z,46.9
2017-07-08T00:26:12.480Z,46.8
2017-07-08T00:27:12.832Z,46.7
2017-07-08T00:28:12.858Z,46.7
2017-07-08T00:29:12.560Z,47.19
2017-07-08T00:30:12.588Z,47.28
2017-07-08T00:31:12.614Z,47
2017-07-08T00:32:12.643Z,47
2017-07-08T00:33:12.671Z,47
2017-07-08T00:34:12.696Z,47.09
2017-07-08T00:35:12.804Z,47.16
2017-07-08T00:36:12.749Z,47.19
2017-07-08T00:37:13.101Z,47.38
2017-07-08T00:38:13.128Z,47.19
2017-07-08T00:39:12.832Z,47.58
2017-07-08T00:40:12.865Z,47.45
2017-07-08T00:41:13.213Z,47.36
2017-07-08T00:42:13.233Z,47.45
2017-07-08T00:43:13.263Z,47.45
2017-07-08T00:44:13.291Z,47.36
2017-07-08T00:45:12.993Z,47.45
2017-07-08T00:46:13.347Z,47.36
2017-07-08T00:47:13.367Z,47.55
2017-07-08T00:48:13.398Z,47.45
2017-07-08T00:49:13.426Z,47.36
2017-07-08T00:50:13.449Z,47.36
2017-07-08T00:51:13.480Z,47.36
2017-07-08T00:52:13.504Z,47.26
2017-07-08T00:53:13.531Z,47.55
2017-07-08T00:54:13.562Z,47.36
2017-07-08T00:55:13.586Z,47.36
2017-07-08T00:56:13.612Z,47.36
2017-07-08T00:57:13.316Z,47.26
2017-07-08T00:58:13.340Z,47.45
2017-07-08T00:59:13.691Z,47.33
2017-07-08T01:00:13.395Z,47.36
2017-07-08T01:01:13.745Z,47.33
2017-07-08T01:02:13.778Z,47.16
2017-07-08T01:03:13.801Z,47.53
2017-07-08T01:04:13.828Z,47.53
2017-07-08T01:05:13.530Z,47.43
2017-07-08T01:06:14.002Z,47.53
2017-07-08T01:07:13.902Z,47.81
2017-07-08T01:08:13.608Z,47.72
2017-07-08T01:09:13.635Z,47.53
2017-07-08T01:10:13.979Z,47.33
2017-07-08T01:11:14.011Z,47.63
2017-07-08T01:12:13.715Z,47.24
2017-07-08T01:13:13.740Z,47.14
2017-07-08T01:14:13.769Z,47.14
2017-07-08T01:15:14.118Z,47.43
2017-07-08T01:16:14.143Z,47.33
2017-07-08T01:17:13.847Z,47.43
2017-07-08T01:18:14.199Z,47.53
2017-07-08T01:19:13.903Z,47.63
2017-07-08T01:20:14.253Z,47.72
2017-07-08T01:21:13.951Z,47.91
2017-07-08T01:22:14.303Z,47.43
2017-07-08T01:23:14.331Z,47.53
2017-07-08T01:24:14.355Z,48.01
2017-07-08T01:25:14.489Z,48.11
2017-07-08T01:26:14.085Z,48.01
2017-07-08T01:27:14.725Z,47.91
2017-07-08T01:28:14.140Z,47.72
2017-07-08T01:29:14.486Z,48.01
2017-07-08T01:30:14.517Z,47.43
2017-07-08T01:31:14.216Z,47.81
2017-07-08T01:32:14.908Z,47.41
2017-07-08T01:33:14.591Z,47.81
2017-07-08T01:34:14.303Z,47.99
2017-07-08T01:35:14.646Z,47.99
2017-07-08T01:36:14.700Z,48.01
2017-07-08T01:37:14.727Z,48.01
2017-07-08T01:38:14.434Z,47.99
2017-07-08T01:39:14.803Z,47.99
2017-07-08T01:40:14.858Z,48.08
2017-07-08T01:41:14.847Z,47.99
2017-07-08T01:42:14.831Z,47.99
2017-07-08T01:43:14.857Z,47.99
2017-07-08T01:44:14.885Z,48.08
2017-07-08T01:45:14.908Z,47.99
2017-07-08T01:46:14.936Z,48.08
2017-07-08T01:47:14.963Z,48.37
2017-07-08T01:48:14.997Z,48.28
2017-07-08T01:49:15.012Z,48.47
2017-07-08T01:50:14.717Z,48.37
2017-07-08T01:51:15.067Z,48.66
2017-07-08T01:52:15.095Z,48.57
2017-07-08T01:53:15.121Z,48.37
2017-07-08T01:54:14.822Z,48.47
2017-07-08T01:55:14.849Z,48.76
2017-07-08T01:56:15.247Z,48.86
2017-07-08T01:57:15.222Z,48.08
2017-07-08T01:58:15.252Z,48.76
2017-07-08T01:59:14.953Z,48.66
2017-07-08T02:00:15.301Z,48.28
2017-07-08T02:01:15.325Z,48.57
2017-07-08T02:02:15.356Z,48.47
2017-07-08T02:03:15.057Z,48.47
2017-07-08T02:04:15.406Z,48.86
2017-07-08T02:05:15.432Z,48.66
2017-07-08T02:06:15.141Z,48.76
2017-07-08T02:07:15.161Z,48.57
2017-07-08T02:08:15.508Z,48.74
2017-07-08T02:09:15.213Z,48.57
2017-07-08T02:10:15.239Z,48.44
2017-07-08T02:11:15.265Z,48.54
2017-07-08T02:12:15.617Z,48.44
2017-07-08T02:13:15.644Z,48.54
2017-07-08T02:14:15.343Z,48.54
2017-07-08T02:15:15.821Z,48.54
2017-07-08T02:16:15.560Z,49.02
2017-07-08T02:17:15.556Z,48.83
2017-07-08T02:18:15.977Z,48.74
2017-07-08T02:19:15.978Z,49.02
2017-07-08T02:20:15.747Z,48.64
2017-07-08T02:21:16.035Z,49.12
2017-07-08T02:22:15.659Z,49.22
2017-07-08T02:23:15.659Z,49.6
2017-07-08T02:24:16.049Z,48.93
2017-07-08T02:25:15.830Z,48.93
2017-07-08T02:26:15.744Z,49.12
2017-07-08T02:27:16.149Z,49.02
2017-07-08T02:28:16.147Z,49.12
2017-07-08T02:29:16.110Z,49.22
2017-07-08T02:30:16.220Z,49.8
2017-07-08T02:31:16.452Z,49.32
2017-07-08T02:32:16.182Z,49.8
2017-07-08T02:33:16.157Z,49.6
2017-07-08T02:34:16.189Z,49.51
2017-07-08T02:35:15.893Z,49.51
2017-07-08T02:36:15.914Z,49.7
2017-07-08T02:37:16.263Z,49.6
2017-07-08T02:38:15.965Z,49.7
2017-07-08T02:39:16.314Z,49.7
2017-07-08T02:40:16.341Z,49.9
2017-07-08T02:41:16.367Z,50.09
2017-07-08T02:42:16.397Z,50.47
2017-07-08T02:43:16.417Z,50.67
2017-07-08T02:44:16.449Z,49.8
2017-07-08T02:45:16.472Z,50.38
2017-07-08T02:46:16.497Z,49.9
2017-07-08T02:47:16.522Z,50.18
2017-07-08T02:48:16.600Z,49.99
2017-07-08T02:49:16.571Z,49.96
2017-07-08T02:50:16.652Z,50.26
2017-07-08T02:51:16.626Z,50.76
2017-07-08T02:52:16.648Z,50.18
2017-07-08T02:53:16.670Z,50.26
2017-07-08T02:54:16.379Z,51.03
2017-07-08T02:55:16.726Z,50.16
2017-07-08T02:56:16.750Z,50.45
2017-07-08T02:57:16.455Z,50.06
2017-07-08T02:58:16.482Z,50.74
2017-07-08T02:59:16.827Z,50.16
2017-07-08T03:00:16.527Z,50.16
2017-07-08T03:01:16.880Z,50.35
2017-07-08T03:02:16.906Z,50.35
2017-07-08T03:03:16.933Z,50.35
2017-07-08T03:04:16.631Z,50.45
2017-07-08T03:05:16.659Z,50.35
2017-07-08T03:06:16.681Z,50.16
2017-07-08T03:07:16.709Z,50.93
2017-07-08T03:08:16.736Z,50.45
2017-07-08T03:09:17.083Z,50.26
2017-07-08T03:10:17.108Z,50.54
2017-07-08T03:11:17.134Z,50.64
2017-07-08T03:12:17.161Z,50.26
2017-07-08T03:13:17.186Z,50.45
2017-07-08T03:14:17.275Z,50.64
2017-07-08T03:15:17.235Z,50.45
2017-07-08T03:16:17.264Z,50.45
2017-07-08T03:17:17.295Z,50.45
2017-07-08T03:18:16.995Z,50.64
2017-07-08T03:19:17.344Z,50.35
2017-07-08T03:20:17.367Z,50.35
2017-07-08T03:21:17.392Z,50.35
2017-07-08T03:22:17.095Z,50.45
2017-07-08T03:23:17.437Z,50.64
2017-07-08T03:24:17.466Z,50.54
2017-07-08T03:25:17.494Z,50.93
2017-07-08T03:26:17.747Z,50.35
2017-07-08T03:27:17.545Z,50.35
2017-07-08T03:28:17.569Z,50.35
2017-07-08T03:29:17.603Z,50.35
2017-07-08T03:30:17.616Z,50.26
2017-07-08T03:31:17.648Z,50.35
2017-07-08T03:32:17.671Z,50.45
2017-07-08T03:33:17.701Z,50.35
2017-07-08T03:34:17.398Z,50.26
2017-07-08T03:35:17.747Z,50.45
2017-07-08T03:36:17.447Z,50.35
2017-07-08T03:37:17.474Z,51.03
2017-07-08T03:38:17.825Z,50.84
2017-07-08T03:39:17.847Z,51.03
2017-07-08T03:40:17.876Z,50.26
2017-07-08T03:41:17.901Z,50.16
2017-07-08T03:42:17.601Z,50.45
2017-07-08T03:43:17.671Z,50.54
2017-07-08T03:44:17.652Z,50.84
2017-07-08T03:45:18.001Z,50.93
2017-07-08T03:46:18.026Z,50.54
2017-07-08T03:47:17.727Z,50.54
2017-07-08T03:48:18.078Z,50.84
2017-07-08T03:49:18.105Z,50.74
2017-07-08T03:50:17.858Z,51.03
2017-07-08T03:51:17.830Z,50.84
2017-07-08T03:52:17.856Z,51
2017-07-08T03:53:18.199Z,50.81
2017-07-08T03:54:18.229Z,50.9
2017-07-08T03:55:18.254Z,50.84
2017-07-08T03:56:18.276Z,50.81
2017-07-08T03:57:17.980Z,51.22
2017-07-08T03:58:18.331Z,51.39
2017-07-08T03:59:18.351Z,51
2017-07-08T04:00:18.380Z,51.32
2017-07-08T04:01:18.130Z,51.61
2017-07-08T04:02:18.429Z,51.32
2017-07-08T04:03:18.454Z,51.22
2017-07-08T04:04:18.485Z,51.41
2017-07-08T04:05:18.502Z,51.12
2017-07-08T04:06:18.530Z,51.22
2017-07-08T04:07:18.233Z,51.12
2017-07-08T04:08:18.580Z,51.32
2017-07-08T04:09:18.606Z,51.32
2017-07-08T04:10:18.638Z,51.2
2017-07-08T04:11:18.658Z,51.2
2017-07-08T04:12:18.359Z,51.29
2017-07-08T04:13:18.734Z,51.32
2017-07-08T04:14:18.734Z,51.41
2017-07-08T04:15:18.955Z,51.41
2017-07-08T04:16:18.859Z,51.8
2017-07-08T04:17:18.573Z,51.61
2017-07-08T04:18:18.966Z,51.51
2017-07-08T04:19:18.939Z,51.41
2017-07-08T04:20:18.938Z,51.32
2017-07-08T04:21:18.930Z,51.32
2017-07-08T04:22:18.938Z,51.41
2017-07-08T04:23:18.752Z,51.29
2017-07-08T04:24:18.984Z,51.41
2017-07-08T04:25:18.687Z,51.32
2017-07-08T04:26:18.708Z,51.22
2017-07-08T04:27:18.737Z,51.61
2017-07-08T04:28:19.088Z,51.51
2017-07-08T04:29:18.785Z,51.51
2017-07-08T04:30:19.131Z,51.51
2017-07-08T04:31:19.162Z,51.61
2017-07-08T04:32:19.275Z,51.68
2017-07-08T04:33:18.889Z,51.89
2017-07-08T04:34:19.239Z,51.41
2017-07-08T04:35:19.302Z,51.41
2017-07-08T04:36:18.963Z,51.87
2017-07-08T04:37:19.310Z,51.7
2017-07-08T04:38:19.011Z,52.09
2017-07-08T04:39:19.035Z,52.09
2017-07-08T04:40:19.386Z,51.89
2017-07-08T04:41:19.417Z,52.19
2017-07-08T04:42:19.436Z,52.19
2017-07-08T04:43:19.460Z,52.19
2017-07-08T04:44:19.487Z,52.09
2017-07-08T04:45:19.726Z,51.99
2017-07-08T04:46:19.409Z,52.09
2017-07-08T04:47:19.858Z,52.09
2017-07-08T04:48:19.592Z,51.8
2017-07-08T04:49:19.613Z,51.99
2017-07-08T04:50:19.642Z,51.8
2017-07-08T04:51:19.339Z,51.51
2017-07-08T04:52:19.365Z,51.41
2017-07-08T04:53:19.711Z,51.89
2017-07-08T04:54:19.738Z,51.51
2017-07-08T04:55:19.760Z,51.8
2017-07-08T04:56:19.462Z,51.8
2017-07-08T04:57:19.811Z,51.8
2017-07-08T04:58:19.511Z,51.61
2017-07-08T04:59:19.539Z,51.51
2017-07-08T05:00:19.564Z,51.89
2017-07-08T05:01:19.915Z,51.51
2017-07-08T05:02:19.615Z,51.41
2017-07-08T05:03:19.963Z,51.41
2017-07-08T05:04:19.987Z,51.7
2017-07-08T05:05:20.011Z,51.61
2017-07-08T05:06:19.712Z,51.51
2017-07-08T05:07:19.746Z,51.51
2017-07-08T05:08:19.764Z,51.8
2017-07-08T05:09:19.791Z,51.41
2017-07-08T05:10:20.142Z,51.41
2017-07-08T05:11:20.164Z,51.61
2017-07-08T05:12:20.193Z,51.8
2017-07-08T05:13:20.212Z,51.51
2017-07-08T05:14:20.237Z,51.51
2017-07-08T05:15:20.270Z,51.61
2017-07-08T05:16:19.965Z,51.41
2017-07-08T05:17:20.316Z,51.89
2017-07-08T05:18:20.016Z,52.19
2017-07-08T05:19:20.043Z,51.8
2017-07-08T05:20:20.388Z,51.8
2017-07-08T05:21:20.413Z,51.8
2017-07-08T05:22:20.436Z,52.09
2017-07-08T05:23:20.465Z,51.51
2017-07-08T05:24:20.166Z,52.09
2017-07-08T05:25:20.515Z,52.09
2017-07-08T05:26:20.536Z,52.19
2017-07-08T05:27:20.566Z,51.99
2017-07-08T05:28:20.589Z,52.19
2017-07-08T05:29:20.291Z,52.09
2017-07-08T05:30:20.316Z,51.7
2017-07-08T05:31:20.666Z,51.99
2017-07-08T05:32:20.687Z,51.51
2017-07-08T05:33:20.391Z,51.89
2017-07-08T05:34:20.740Z,52.01
2017-07-08T05:35:20.766Z,51.92
2017-07-08T05:36:20.790Z,51.63
2017-07-08T05:37:20.815Z,52.11
2017-07-08T05:38:20.840Z,52.01
2017-07-08T05:39:20.872Z,52.01
2017-07-08T05:40:20.891Z,52.4
2017-07-08T05:41:20.593Z,52.31
2017-07-08T05:42:20.939Z,52.4
2017-07-08T05:43:20.642Z,52.69
2017-07-08T05:44:20.788Z,52.59
2017-07-08T05:45:21.016Z,52.69
2017-07-08T05:46:20.722Z,52.69
2017-07-08T05:47:21.189Z,53.08
2017-07-08T05:48:21.093Z,52.89
2017-07-08T05:49:21.117Z,53.08
2017-07-08T05:50:21.147Z,52.98
2017-07-08T05:51:21.169Z,52.89
2017-07-08T05:52:20.870Z,52.91
2017-07-08T05:53:21.223Z,53.01
2017-07-08T05:54:21.244Z,53.01
2017-07-08T05:55:21.267Z,53.11
2017-07-08T05:56:20.972Z,53.3
2017-07-08T05:57:21.319Z,53.49
2017-07-08T05:58:21.346Z,53.59
2017-07-08T05:59:21.048Z,53.2
2017-07-08T06:00:21.399Z,53.69
2017-07-08T06:01:21.098Z,53.69
2017-07-08T06:02:21.124Z,53.78
2017-07-08T06:03:21.592Z,53.88
2017-07-08T06:04:21.237Z,54.07
2017-07-08T06:05:21.201Z,54.36
2017-07-08T06:06:21.226Z,54.55
2017-07-08T06:07:21.252Z,54.75
2017-07-08T06:08:21.597Z,54.65
2017-07-08T06:09:21.302Z,54.94
2017-07-08T06:10:21.651Z,54.84
2017-07-08T06:11:21.680Z,55.35
2017-07-08T06:12:21.378Z,55.26
2017-07-08T06:13:21.726Z,55.42
2017-07-08T06:14:21.754Z,55.55
2017-07-08T06:15:21.780Z,55.35
2017-07-08T06:16:21.800Z,54.97
2017-07-08T06:17:21.506Z,55.35
2017-07-08T06:18:21.857Z,55.83
2017-07-08T06:19:21.556Z,55.16
2017-07-08T06:20:21.908Z,55.35
2017-07-08T06:21:21.609Z,55.45
2017-07-08T06:22:21.972Z,55.35
2017-07-08T06:23:21.983Z,55.35
2017-07-08T06:24:22.135Z,55.45
2017-07-08T06:25:22.156Z,55.35
2017-07-08T06:26:22.185Z,55.65
2017-07-08T06:27:21.761Z,55.26
2017-07-08T06:28:21.787Z,55.16
2017-07-08T06:29:22.138Z,55.35
2017-07-08T06:30:21.840Z,54.97
2017-07-08T06:31:22.188Z,54.49
2017-07-08T06:32:22.213Z,54.68
2017-07-08T06:33:22.285Z,54.68
2017-07-08T06:34:21.941Z,54.39
2017-07-08T06:35:22.293Z,54.9
2017-07-08T06:36:22.318Z,54.71
2017-07-08T06:37:22.344Z,55.19
2017-07-08T06:38:22.370Z,55.38
2017-07-08T06:39:22.070Z,55.29
2017-07-08T06:40:22.101Z,54.8
2017-07-08T06:41:22.445Z,54.71
2017-07-08T06:42:22.148Z,54.71
2017-07-08T06:43:22.174Z,54.61
2017-07-08T06:44:22.525Z,54.32
2017-07-08T06:45:22.552Z,54.9
2017-07-08T06:46:22.252Z,55.09
2017-07-08T06:47:22.279Z,54.83
2017-07-08T06:48:22.629Z,54.99
2017-07-08T06:49:22.653Z,54.44
2017-07-08T06:50:22.681Z,54.35
2017-07-08T06:51:22.385Z,54.44
2017-07-08T06:52:22.730Z,54.25
2017-07-08T06:53:22.433Z,54.35
2017-07-08T06:54:22.786Z,54.53
2017-07-08T06:55:22.811Z,54.15
2017-07-08T06:56:22.838Z,53.69
2017-07-08T06:57:23.058Z,54.35
2017-07-08T06:58:22.888Z,53.57
2017-07-08T06:59:22.915Z,54.08
2017-07-08T07:00:22.616Z,53.59
2017-07-08T07:01:22.645Z,53.21
2017-07-08T07:02:22.992Z,53.21
2017-07-08T07:03:23.012Z,53.69
2017-07-08T07:04:23.046Z,53.31
2017-07-08T07:05:23.201Z,53.59
2017-07-08T07:06:23.095Z,53.5
2017-07-08T07:07:23.123Z,53.02
2017-07-08T07:08:23.148Z,52.82
2017-07-08T07:09:23.175Z,52.92
2017-07-08T07:10:23.205Z,53.21
2017-07-08T07:11:23.226Z,52.73
2017-07-08T07:12:22.931Z,52.92
2017-07-08T07:13:23.279Z,52.63
2017-07-08T07:14:23.355Z,52.44
2017-07-08T07:15:23.339Z,52.53
2017-07-08T07:16:23.358Z,52.44
2017-07-08T07:17:23.064Z,52.24
2017-07-08T07:18:23.411Z,52.63
2017-07-08T07:19:23.439Z,52.24
2017-07-08T07:20:23.465Z,51.98
2017-07-08T07:21:23.493Z,51.4
2017-07-08T07:22:23.516Z,51.68
2017-07-08T07:23:23.545Z,51.68
2017-07-08T07:24:23.634Z,51.88
2017-07-08T07:25:23.275Z,51.4
2017-07-08T07:26:23.625Z,51.59
2017-07-08T07:27:23.649Z,51.13
2017-07-08T07:28:23.679Z,50.65
2017-07-08T07:29:23.703Z,50.55
2017-07-08T07:30:23.731Z,50.84
2017-07-08T07:31:23.759Z,50.35
2017-07-08T07:32:23.781Z,50.09
2017-07-08T07:33:23.810Z,49.9
2017-07-08T07:34:23.844Z,50.29
2017-07-08T07:35:23.540Z,49.9
2017-07-08T07:36:23.888Z,49.7
2017-07-08T07:37:23.918Z,50.19
2017-07-08T07:38:23.948Z,49.8
2017-07-08T07:39:23.974Z,49.99
2017-07-08T07:40:23.673Z,49.99
2017-07-08T07:41:24.023Z,49.44
2017-07-08T07:42:24.049Z,49.24
2017-07-08T07:43:24.076Z,49.15
2017-07-08T07:44:23.782Z,49.24
2017-07-08T07:45:23.833Z,49.34
2017-07-08T07:46:23.836Z,48.85
2017-07-08T07:47:23.861Z,49.05
2017-07-08T07:48:24.209Z,49.05
2017-07-08T07:49:23.917Z,48.66
2017-07-08T07:50:24.265Z,48.69
2017-07-08T07:51:24.296Z,48.66
2017-07-08T07:52:24.005Z,48.78
2017-07-08T07:53:24.353Z,48.59
2017-07-08T07:54:24.053Z,48.69
2017-07-08T07:55:24.080Z,48.49
2017-07-08T07:56:24.107Z,48.88
2017-07-08T07:57:24.136Z,48.39
2017-07-08T07:58:24.482Z,49.07
2017-07-08T07:59:24.512Z,49
2017-07-08T08:00:24.540Z,48.61
2017-07-08T08:01:24.564Z,48.8
2017-07-08T08:02:24.591Z,48.71
2017-07-08T08:03:24.693Z,48.32
2017-07-08T08:04:24.648Z,48.13
2017-07-08T08:05:24.678Z,47.93
2017-07-08T08:06:24.381Z,47.93
2017-07-08T08:07:24.736Z,48.22
2017-07-08T08:08:24.761Z,48.05
2017-07-08T08:09:24.466Z,47.76
2017-07-08T08:10:24.816Z,47.66
2017-07-08T08:11:24.520Z,47.66
2017-07-08T08:12:24.597Z,47.76
2017-07-08T08:13:24.898Z,47.47
2017-07-08T08:14:24.603Z,47.28
2017-07-08T08:15:24.953Z,47.47
2017-07-08T08:16:24.656Z,46.89
2017-07-08T08:17:25.008Z,47.18
2017-07-08T08:18:24.713Z,46.98
2017-07-08T08:19:25.063Z,46.79
2017-07-08T08:20:25.089Z,46.69
2017-07-08T08:21:24.796Z,46.79
2017-07-08T08:22:25.147Z,46.6
2017-07-08T08:23:24.854Z,46.6
2017-07-08T08:24:24.882Z,46.5
2017-07-08T08:25:24.907Z,46.6
2017-07-08T08:26:25.259Z,46.31
2017-07-08T08:27:24.962Z,46.42
2017-07-08T08:28:25.319Z,46.14
2017-07-08T08:29:25.343Z,45.94
2017-07-08T08:30:25.049Z,45.65
2017-07-08T08:31:25.077Z,45.84
2017-07-08T08:32:25.431Z,45.55
2017-07-08T08:33:25.455Z,45.75
2017-07-08T08:34:25.163Z,45.65
2017-07-08T08:35:25.516Z,45.45
2017-07-08T08:36:25.216Z,45.45
2017-07-08T08:37:25.245Z,45.36
2017-07-08T08:38:25.599Z,45.18
2017-07-08T08:39:25.629Z,45.18
2017-07-08T08:40:25.331Z,45.09
2017-07-08T08:41:25.360Z,45.09
2017-07-08T08:42:25.710Z,44.89
2017-07-08T08:43:25.739Z,44.51
2017-07-08T08:44:25.443Z,44.6
2017-07-08T08:45:25.474Z,44.6
2017-07-08T08:46:25.822Z,44.21
2017-07-08T08:47:25.855Z,44.51
2017-07-08T08:48:25.559Z,44.14
2017-07-08T08:49:25.919Z,44.24
2017-07-08T08:50:25.613Z,44.31
2017-07-08T08:51:25.966Z,43.92
2017-07-08T08:52:25.996Z,43.85
2017-07-08T08:53:25.699Z,44.04
2017-07-08T08:54:26.053Z,43.85
2017-07-08T08:55:26.084Z,43.55
2017-07-08T08:56:26.116Z,43.75
2017-07-08T08:57:26.139Z,43.58
2017-07-08T08:58:26.168Z,43.67
2017-07-08T08:59:26.198Z,43.77
2017-07-08T09:00:26.226Z,43.58
2017-07-08T09:01:26.254Z,43.67
2017-07-08T09:02:25.960Z,43.67
2017-07-08T09:03:26.312Z,43.38
2017-07-08T09:04:26.017Z,43.19
2017-07-08T09:05:26.044Z,43.09
2017-07-08T09:06:26.074Z,43.19
2017-07-08T09:07:26.103Z,43.19
2017-07-08T09:08:26.455Z,43.29
2017-07-08T09:09:26.164Z,43.29
2017-07-08T09:10:26.192Z,43.58
2017-07-08T09:11:26.219Z,43.58
2017-07-08T09:12:26.250Z,42.99
2017-07-08T09:13:26.278Z,42.7
2017-07-08T09:14:26.307Z,42.99
2017-07-08T09:15:26.334Z,42.99
2017-07-08T09:16:26.366Z,42.91
2017-07-08T09:17:26.715Z,42.72
2017-07-08T09:18:26.743Z,42.63
2017-07-08T09:19:26.774Z,42.33
2017-07-08T09:20:26.479Z,42.33
2017-07-08T09:21:26.833Z,42.33
2017-07-08T09:22:26.538Z,42.24
2017-07-08T09:23:26.889Z,42.33
2017-07-08T09:24:26.598Z,41.85
2017-07-08T09:25:26.950Z,41.55
2017-07-08T09:26:26.654Z,41.55
2017-07-08T09:27:26.684Z,41.65
2017-07-08T09:28:26.714Z,41.75
2017-07-08T09:29:26.744Z,41.57
2017-07-08T09:30:27.099Z,41.67
2017-07-08T09:31:26.805Z,41.75
2017-07-08T09:32:27.154Z,41.28
2017-07-08T09:33:26.862Z,41.48
2017-07-08T09:34:26.890Z,41.48
2017-07-08T09:35:26.922Z,41.4
2017-07-08T09:36:27.272Z,41.3
2017-07-08T09:37:27.306Z,41.11
2017-07-08T09:38:27.013Z,40.62
2017-07-08T09:39:27.360Z,40.81
2017-07-08T09:40:27.393Z,40.35
2017-07-08T09:41:27.426Z,40.16
2017-07-08T09:42:27.130Z,39.96
2017-07-08T09:43:27.480Z,39.67
2017-07-08T09:44:27.514Z,39.57
2017-07-08T09:45:27.218Z,39.2
2017-07-08T09:46:27.249Z,39.2
2017-07-08T09:47:27.276Z,39.59
2017-07-08T09:48:27.305Z,39.49
2017-07-08T09:49:27.337Z,39.39
2017-07-08T09:50:27.690Z,39.1
2017-07-08T09:51:27.393Z,38.82
2017-07-08T09:52:27.747Z,39.12
2017-07-08T09:53:27.455Z,39.22
2017-07-08T09:54:27.485Z,38.92
2017-07-08T09:55:27.516Z,38.82
2017-07-08T09:56:27.866Z,38.55
2017-07-08T09:57:27.576Z,38.65
2017-07-08T09:58:27.607Z,38.06
2017-07-08T09:59:27.635Z,38.16
2017-07-08T10:00:27.990Z,38.35
2017-07-08T10:01:27.698Z,37.96
2017-07-08T10:02:28.050Z,38.06
2017-07-08T10:03:28.083Z,38.53
2017-07-08T10:04:27.789Z,38.55
2017-07-08T10:05:28.146Z,38.43
2017-07-08T10:06:28.171Z,38.24
2017-07-08T10:07:28.202Z,38.14
2017-07-08T10:08:27.910Z,38.24
2017-07-08T10:09:27.939Z,38.34
2017-07-08T10:10:28.294Z,38.24
2017-07-08T10:11:28.000Z,38.34
2017-07-08T10:12:28.031Z,38.14
2017-07-08T10:13:28.058Z,38.14
2017-07-08T10:14:28.091Z,37.75
2017-07-08T10:15:28.120Z,38.73
2017-07-08T10:16:28.474Z,38.92
2017-07-08T10:17:28.504Z,39.61
2017-07-08T10:18:28.214Z,39.69
2017-07-08T10:19:28.567Z,40.08
2017-07-08T10:20:28.595Z,41.35
2017-07-08T10:21:28.304Z,41.44
2017-07-08T10:22:28.655Z,42.02
2017-07-08T10:23:28.691Z,42.61
2017-07-08T10:24:28.724Z,43.1
2017-07-08T10:25:28.753Z,43.19
2017-07-08T10:26:28.456Z,43.59
2017-07-08T10:27:28.809Z,44.05
2017-07-08T10:28:28.838Z,43.85
2017-07-08T10:29:28.867Z,44.44
2017-07-08T10:30:28.578Z,44.15
2017-07-08T10:31:28.931Z,44.93
2017-07-08T10:32:28.637Z,44.9
2017-07-08T10:33:28.992Z,45
2017-07-08T10:34:28.702Z,45.1
2017-07-08T10:35:29.053Z,45.39
2017-07-08T10:36:29.082Z,45.57
2017-07-08T10:37:29.115Z,45.86
2017-07-08T10:38:28.818Z,45.76
2017-07-08T10:39:29.175Z,45.95
2017-07-08T10:40:28.882Z,46.05
2017-07-08T10:41:28.911Z,46.15
2017-07-08T10:42:29.266Z,46.32
2017-07-08T10:43:28.974Z,46.42
2017-07-08T10:44:29.328Z,46.51
2017-07-08T10:45:29.355Z,46.32
2017-07-08T10:46:29.066Z,46.32
2017-07-08T10:47:29.414Z,46.32
2017-07-08T10:48:29.445Z,46.42
2017-07-08T10:49:29.475Z,46.42
2017-07-08T10:50:29.506Z,46.32
2017-07-08T10:51:29.215Z,46.23
2017-07-08T10:52:29.244Z,46.03
2017-07-08T10:53:29.592Z,46.13
2017-07-08T10:54:29.627Z,46.13
2017-07-08T10:55:29.655Z,46.32
2017-07-08T10:56:29.713Z,46.42
2017-07-08T10:57:29.766Z,46.32
2017-07-08T10:58:29.747Z,46.42
2017-07-08T10:59:29.844Z,46.5
2017-07-08T11:00:29.481Z,46.61
2017-07-08T11:01:29.512Z,46.42
2017-07-08T11:02:29.869Z,46.81
2017-07-08T11:03:29.898Z,47.08
2017-07-08T11:04:29.605Z,47.2
2017-07-08T11:05:29.960Z,47.56
2017-07-08T11:06:29.987Z,47.86
2017-07-08T11:07:30.018Z,47.86
2017-07-08T11:08:30.054Z,48.05
2017-07-08T11:09:29.755Z,47.86
2017-07-08T11:10:30.109Z,48.05
2017-07-08T11:11:30.139Z,47.96
2017-07-08T11:12:30.171Z,47.66
2017-07-08T11:13:30.197Z,47.56
2017-07-08T11:14:30.229Z,47.96
2017-07-08T11:15:30.257Z,47.96
2017-07-08T11:16:30.287Z,47.96
2017-07-08T11:17:30.323Z,47.96
2017-07-08T11:18:30.348Z,48.63
2017-07-08T11:19:30.457Z,48.73
2017-07-08T11:20:30.175Z,48.44
2017-07-08T11:21:30.439Z,48.66
2017-07-08T11:22:30.464Z,48.36
2017-07-08T11:23:30.496Z,48.46
2017-07-08T11:24:30.523Z,47.98
2017-07-08T11:25:30.559Z,48.17
2017-07-08T11:26:30.587Z,47.69
2017-07-08T11:27:30.618Z,47.98
2017-07-08T11:28:30.323Z,47.49
2017-07-08T11:29:30.675Z,47.03
2017-07-08T11:30:30.705Z,46.34
2017-07-08T11:31:30.741Z,46.15
2017-07-08T11:32:30.442Z,45.57
2017-07-08T11:33:30.480Z,45.39
2017-07-08T11:34:30.504Z,45
2017-07-08T11:35:30.944Z,45
2017-07-08T11:36:30.886Z,44.34
2017-07-08T11:37:30.917Z,44.07
2017-07-08T11:38:30.949Z,44.07
2017-07-08T11:39:30.655Z,43.39
2017-07-08T11:40:31.020Z,43.12
2017-07-08T11:41:31.170Z,43.22
2017-07-08T11:42:31.199Z,43.8
2017-07-08T11:43:31.216Z,43.92
2017-07-08T11:44:30.931Z,43.92
2017-07-08T11:45:31.157Z,43.82
2017-07-08T11:46:31.195Z,43.63
2017-07-08T11:47:30.901Z,43.16
2017-07-08T11:48:31.253Z,42.97
2017-07-08T11:49:31.284Z,42.77
2017-07-08T11:50:31.316Z,43.08
2017-07-08T11:51:31.349Z,43.28
2017-07-08T11:52:31.387Z,42.89
2017-07-08T11:53:31.087Z,43.28
2017-07-08T11:54:31.446Z,43.28
2017-07-08T11:55:31.473Z,43.08
2017-07-08T11:56:31.177Z,43.1
2017-07-08T11:57:31.535Z,43.2
2017-07-08T11:58:31.242Z,42.81
2017-07-08T11:59:31.602Z,43.03
2017-07-08T12:00:31.628Z,42.93
2017-07-08T12:01:31.767Z,42.54
2017-07-08T12:02:31.367Z,42.74
2017-07-08T12:03:31.399Z,41.66
2017-07-08T12:04:31.434Z,41.76
2017-07-08T12:05:31.463Z,41.68
2017-07-08T12:06:31.493Z,41.09
2017-07-08T12:07:31.528Z,40.7
2017-07-08T12:08:31.556Z,40.6
2017-07-08T12:09:31.915Z,40.6
2017-07-08T12:10:31.621Z,41
2017-07-08T12:11:31.976Z,40.5
2017-07-08T12:12:32.013Z,40.31
2017-07-08T12:13:32.040Z,40.41
2017-07-08T12:14:32.072Z,40.21
2017-07-08T12:15:32.104Z,39.62
2017-07-08T12:16:32.135Z,39.74
2017-07-08T12:17:32.169Z,39.64
2017-07-08T12:18:31.877Z,39.45
2017-07-08T12:19:31.907Z,39.25
2017-07-08T12:20:32.262Z,39.35
2017-07-08T12:21:32.295Z,39.17
2017-07-08T12:22:32.002Z,39.07
2017-07-08T12:23:32.356Z,38.88
2017-07-08T12:24:32.392Z,38.1
2017-07-08T12:25:32.428Z,38.29
2017-07-08T12:26:32.456Z,38.12
2017-07-08T12:27:32.491Z,37.63
2017-07-08T12:28:32.200Z,37.43
2017-07-08T12:29:32.568Z,37.43
2017-07-08T12:30:32.587Z,37.05
2017-07-08T12:31:32.295Z,36.86
2017-07-08T12:32:32.649Z,36.76
2017-07-08T12:33:32.358Z,36.66
2017-07-08T12:34:32.392Z,36.18
2017-07-08T12:35:32.747Z,36.27
2017-07-08T12:36:32.457Z,36.47
2017-07-08T12:37:32.811Z,35.97
2017-07-08T12:38:32.524Z,36.08
2017-07-08T12:39:32.557Z,36.08
2017-07-08T12:40:32.590Z,35.97
2017-07-08T12:41:32.964Z,35.58
2017-07-08T12:42:32.987Z,35.88
2017-07-08T12:43:33.010Z,35.78
2017-07-08T12:44:33.040Z,35.39
2017-07-08T12:45:33.075Z,35.11
2017-07-08T12:46:32.784Z,35.02
2017-07-08T12:47:33.142Z,34.92
2017-07-08T12:48:33.169Z,35.02
2017-07-08T12:49:33.204Z,34.34
2017-07-08T12:50:32.914Z,34.54
2017-07-08T12:51:33.268Z,33.95
2017-07-08T12:52:33.304Z,33.75
2017-07-08T12:53:33.335Z,33.85
2017-07-08T12:54:33.369Z,33.75
2017-07-08T12:55:33.079Z,33.85
2017-07-08T12:56:33.434Z,33.95